sensor_id;sensor_type;location;lat;lon;timestamp;temperature;humidity
70867;HTU21D;58487;53.474;49.470;2023-01-26T00:01:12;-7.89;72.87
70867;HTU21D;58487;53.474;49.470;2023-01-26T00:03:39;-8.11;72.71
70867;HTU21D;58487;53.474;49.470;2023-01-26T00:06:06;-8.35;73.79
70867;HTU21D;58487;53.474;49.470;2023-01-26T00:08:36;-8.49;74.98
70867;HTU21D;58487;53.474;49.470;2023-01-26T00:11:04;-8.53;75.41
70867;HTU21D;58487;53.474;49.470;2023-01-26T00:13:31;-8.46;75.71
70867;HTU21D;58487;53.474;49.470;2023-01-26T00:15:57;-8.45;75.84
70867;HTU21D;58487;53.474;49.470;2023-01-26T00:18:23;-8.38;75.72
70867;HTU21D;58487;53.474;49.470;2023-01-26T00:20:55;-8.34;75.26
70867;HTU21D;58487;53.474;49.470;2023-01-26T00:23:21;-8.24;75.70
70867;HTU21D;58487;53.474;49.470;2023-01-26T00:25:47;-8.23;75.38
70867;HTU21D;58487;53.474;49.470;2023-01-26T00:28:13;-8.23;75.11
70867;HTU21D;58487;53.474;49.470;2023-01-26T00:30:39;-8.27;74.95
70867;HTU21D;58487;53.474;49.470;2023-01-26T00:33:05;-8.23;74.71
70867;HTU21D;58487;53.474;49.470;2023-01-26T00:35:31;-8.22;74.83
70867;HTU21D;58487;53.474;49.470;2023-01-26T00:37:57;-8.13;74.30
70867;HTU21D;58487;53.474;49.470;2023-01-26T00:40:22;-8.12;74.14
70867;HTU21D;58487;53.474;49.470;2023-01-26T00:42:48;-8.14;74.31
70867;HTU21D;58487;53.474;49.470;2023-01-26T00:45:14;-8.15;74.36
70867;HTU21D;58487;53.474;49.470;2023-01-26T00:47:40;-8.24;74.54
70867;HTU21D;58487;53.474;49.470;2023-01-26T00:50:07;-8.18;73.98
70867;HTU21D;58487;53.474;49.470;2023-01-26T00:52:33;-8.21;73.51
70867;HTU21D;58487;53.474;49.470;2023-01-26T00:54:59;-8.23;73.30
70867;HTU21D;58487;53.474;49.470;2023-01-26T00:57:25;-8.18;73.32
70867;HTU21D;58487;53.474;49.470;2023-01-26T00:59:51;-8.12;72.83
70867;HTU21D;58487;53.474;49.470;2023-01-26T01:02:17;-8.00;72.33
70867;HTU21D;58487;53.474;49.470;2023-01-26T01:04:43;-7.97;71.84
70867;HTU21D;58487;53.474;49.470;2023-01-26T01:07:09;-8.01;71.74
70867;HTU21D;58487;53.474;49.470;2023-01-26T01:09:35;-8.12;71.82
70867;HTU21D;58487;53.474;49.470;2023-01-26T01:12:01;-8.11;71.61
70867;HTU21D;58487;53.474;49.470;2023-01-26T01:14:27;-8.10;71.80
70867;HTU21D;58487;53.474;49.470;2023-01-26T01:16:53;-8.10;71.63
70867;HTU21D;58487;53.474;49.470;2023-01-26T01:19:19;-8.13;71.90
70867;HTU21D;58487;53.474;49.470;2023-01-26T01:21:45;-8.16;71.80
70867;HTU21D;58487;53.474;49.470;2023-01-26T01:24:11;-8.13;71.95
70867;HTU21D;58487;53.474;49.470;2023-01-26T01:26:38;-8.13;71.87
70867;HTU21D;58487;53.474;49.470;2023-01-26T01:29:04;-8.06;72.56
70867;HTU21D;58487;53.474;49.470;2023-01-26T01:31:30;-7.89;71.75
70867;HTU21D;58487;53.474;49.470;2023-01-26T01:33:56;-7.77;71.77
70867;HTU21D;58487;53.474;49.470;2023-01-26T01:36:23;-7.59;71.84
70867;HTU21D;58487;53.474;49.470;2023-01-26T01:38:49;-7.44;71.29
70867;HTU21D;58487;53.474;49.470;2023-01-26T01:41:17;-7.32;69.76
70867;HTU21D;58487;53.474;49.470;2023-01-26T01:43:44;-7.22;68.68
70867;HTU21D;58487;53.474;49.470;2023-01-26T01:46:31;-7.19;68.05
70867;HTU21D;58487;53.474;49.470;2023-01-26T01:51:38;-7.16;66.43
70867;HTU21D;58487;53.474;49.470;2023-01-26T01:54:12;-7.13;65.45
70867;HTU21D;58487;53.474;49.470;2023-01-26T01:56:42;-7.27;66.13
70867;HTU21D;58487;53.474;49.470;2023-01-26T01:59:10;-7.29;66.37
70867;HTU21D;58487;53.474;49.470;2023-01-26T02:01:37;-7.09;66.13
70867;HTU21D;58487;53.474;49.470;2023-01-26T02:04:05;-6.88;65.33
70867;HTU21D;58487;53.474;49.470;2023-01-26T02:09:07;-6.74;64.56
70867;HTU21D;58487;53.474;49.470;2023-01-26T02:11:56;-6.73;64.28
70867;HTU21D;58487;53.474;49.470;2023-01-26T02:14:23;-6.80;64.56
70867;HTU21D;58487;53.474;49.470;2023-01-26T02:16:49;-6.86;64.64
70867;HTU21D;58487;53.474;49.470;2023-01-26T02:22:10;-6.82;64.40
70867;HTU21D;58487;53.474;49.470;2023-01-26T02:24:39;-6.81;64.56
70867;HTU21D;58487;53.474;49.470;2023-01-26T02:27:06;-6.93;64.69
70867;HTU21D;58487;53.474;49.470;2023-01-26T02:29:32;-6.97;65.27
70867;HTU21D;58487;53.474;49.470;2023-01-26T02:31:58;-6.98;65.40
70867;HTU21D;58487;53.474;49.470;2023-01-26T02:34:23;-7.10;65.62
70867;HTU21D;58487;53.474;49.470;2023-01-26T02:37:00;-7.21;66.12
70867;HTU21D;58487;53.474;49.470;2023-01-26T02:39:46;-7.25;66.37
70867;HTU21D;58487;53.474;49.470;2023-01-26T02:42:14;-7.21;66.49
70867;HTU21D;58487;53.474;49.470;2023-01-26T02:44:58;-7.08;66.26
70867;HTU21D;58487;53.474;49.470;2023-01-26T02:47:24;-6.96;65.93
70867;HTU21D;58487;53.474;49.470;2023-01-26T02:49:50;-6.86;66.00
70867;HTU21D;58487;53.474;49.470;2023-01-26T02:52:19;-6.72;65.85
70867;HTU21D;58487;53.474;49.470;2023-01-26T02:54:45;-6.58;65.54
70867;HTU21D;58487;53.474;49.470;2023-01-26T02:57:30;-6.44;65.11
70867;HTU21D;58487;53.474;49.470;2023-01-26T02:59:58;-6.35;65.22
70867;HTU21D;58487;53.474;49.470;2023-01-26T03:02:25;-6.24;64.94
70867;HTU21D;58487;53.474;49.470;2023-01-26T03:04:51;-6.17;65.09
70867;HTU21D;58487;53.474;49.470;2023-01-26T03:07:17;-6.20;64.40
70867;HTU21D;58487;53.474;49.470;2023-01-26T03:09:43;-6.19;64.24
70867;HTU21D;58487;53.474;49.470;2023-01-26T03:12:09;-6.24;64.60
70867;HTU21D;58487;53.474;49.470;2023-01-26T03:14:35;-6.26;64.88
70867;HTU21D;58487;53.474;49.470;2023-01-26T03:17:01;-6.20;65.59
70867;HTU21D;58487;53.474;49.470;2023-01-26T03:19:27;-6.13;65.79
70867;HTU21D;58487;53.474;49.470;2023-01-26T03:22:11;-6.07;65.85
70867;HTU21D;58487;53.474;49.470;2023-01-26T03:24:56;-6.09;66.00
70867;HTU21D;58487;53.474;49.470;2023-01-26T03:27:43;-6.06;66.22
70867;HTU21D;58487;53.474;49.470;2023-01-26T03:30:10;-6.04;65.77
70867;HTU21D;58487;53.474;49.470;2023-01-26T03:32:36;-5.99;66.44
70867;HTU21D;58487;53.474;49.470;2023-01-26T03:35:02;-5.94;66.17
70867;HTU21D;58487;53.474;49.470;2023-01-26T03:37:29;-5.93;65.64
70867;HTU21D;58487;53.474;49.470;2023-01-26T03:40:04;-5.94;66.47
70867;HTU21D;58487;53.474;49.470;2023-01-26T03:42:49;-5.89;67.00
70867;HTU21D;58487;53.474;49.470;2023-01-26T03:45:33;-5.89;66.71
70867;HTU21D;58487;53.474;49.470;2023-01-26T03:48:17;-5.89;66.82
70867;HTU21D;58487;53.474;49.470;2023-01-26T03:51:02;-5.92;66.83
70867;HTU21D;58487;53.474;49.470;2023-01-26T03:53:46;-5.97;66.81
70867;HTU21D;58487;53.474;49.470;2023-01-26T03:56:31;-5.97;66.53
70867;HTU21D;58487;53.474;49.470;2023-01-26T03:58:59;-5.97;66.86
70867;HTU21D;58487;53.474;49.470;2023-01-26T04:01:38;-5.96;66.30
70867;HTU21D;58487;53.474;49.470;2023-01-26T04:04:05;-6.00;66.46
70867;HTU21D;58487;53.474;49.470;2023-01-26T04:06:50;-6.00;66.32
70867;HTU21D;58487;53.474;49.470;2023-01-26T04:09:35;-6.01;66.79
70867;HTU21D;58487;53.474;49.470;2023-01-26T04:12:03;-5.94;66.42
70867;HTU21D;58487;53.474;49.470;2023-01-26T04:14:29;-5.94;66.17
70867;HTU21D;58487;53.474;49.470;2023-01-26T04:17:13;-5.97;66.27
70867;HTU21D;58487;53.474;49.470;2023-01-26T04:19:58;-5.97;66.24
70867;HTU21D;58487;53.474;49.470;2023-01-26T04:22:42;-5.97;66.33
70867;HTU21D;58487;53.474;49.470;2023-01-26T04:25:12;-5.96;66.81
70867;HTU21D;58487;53.474;49.470;2023-01-26T04:27:39;-5.98;66.43
70867;HTU21D;58487;53.474;49.470;2023-01-26T04:30:07;-5.98;66.81
70867;HTU21D;58487;53.474;49.470;2023-01-26T04:32:33;-5.99;67.26
70867;HTU21D;58487;53.474;49.470;2023-01-26T04:34:59;-6.01;67.59
70867;HTU21D;58487;53.474;49.470;2023-01-26T04:37:25;-5.99;67.46
70867;HTU21D;58487;53.474;49.470;2023-01-26T04:39:51;-5.99;67.45
70867;HTU21D;58487;53.474;49.470;2023-01-26T04:42:17;-5.99;67.39
70867;HTU21D;58487;53.474;49.470;2023-01-26T04:44:43;-6.02;67.62
70867;HTU21D;58487;53.474;49.470;2023-01-26T04:47:09;-6.06;68.01
70867;HTU21D;58487;53.474;49.470;2023-01-26T04:49:35;-6.07;68.23
70867;HTU21D;58487;53.474;49.470;2023-01-26T04:52:01;-6.14;68.45
70867;HTU21D;58487;53.474;49.470;2023-01-26T04:54:27;-6.06;69.00
70867;HTU21D;58487;53.474;49.470;2023-01-26T04:56:53;-5.96;68.81
70867;HTU21D;58487;53.474;49.470;2023-01-26T04:59:19;-5.88;68.61
70867;HTU21D;58487;53.474;49.470;2023-01-26T05:01:45;-5.85;68.66
70867;HTU21D;58487;53.474;49.470;2023-01-26T05:04:11;-5.79;68.11
70867;HTU21D;58487;53.474;49.470;2023-01-26T05:06:37;-5.76;68.16
70867;HTU21D;58487;53.474;49.470;2023-01-26T05:09:04;-5.73;67.92
70867;HTU21D;58487;53.474;49.470;2023-01-26T05:11:30;-5.71;67.41
70867;HTU21D;58487;53.474;49.470;2023-01-26T05:13:56;-5.64;67.30
70867;HTU21D;58487;53.474;49.470;2023-01-26T05:16:23;-5.63;66.82
70867;HTU21D;58487;53.474;49.470;2023-01-26T05:18:49;-5.64;66.43
70867;HTU21D;58487;53.474;49.470;2023-01-26T05:21:16;-5.64;66.11
70867;HTU21D;58487;53.474;49.470;2023-01-26T05:23:42;-5.98;65.26
70867;HTU21D;58487;53.474;49.470;2023-01-26T05:26:08;-6.64;66.07
70867;HTU21D;58487;53.474;49.470;2023-01-26T05:28:34;-6.61;67.24
70867;HTU21D;58487;53.474;49.470;2023-01-26T05:31:00;-6.43;67.30
70867;HTU21D;58487;53.474;49.470;2023-01-26T05:33:26;-6.57;64.79
70867;HTU21D;58487;53.474;49.470;2023-01-26T05:35:53;-6.56;65.04
70867;HTU21D;58487;53.474;49.470;2023-01-26T05:38:19;-6.56;64.55
70867;HTU21D;58487;53.474;49.470;2023-01-26T05:40:45;-6.59;64.37
70867;HTU21D;58487;53.474;49.470;2023-01-26T05:43:11;-6.70;64.59
70867;HTU21D;58487;53.474;49.470;2023-01-26T05:45:38;-6.78;65.14
70867;HTU21D;58487;53.474;49.470;2023-01-26T05:48:05;-6.81;65.46
70867;HTU21D;58487;53.474;49.470;2023-01-26T05:50:31;-6.63;65.66
70867;HTU21D;58487;53.474;49.470;2023-01-26T05:52:57;-6.42;65.08
70867;HTU21D;58487;53.474;49.470;2023-01-26T05:55:25;-6.06;65.11
70867;HTU21D;58487;53.474;49.470;2023-01-26T05:57:51;-5.75;64.08
70867;HTU21D;58487;53.474;49.470;2023-01-26T06:00:17;-5.48;62.99
70867;HTU21D;58487;53.474;49.470;2023-01-26T06:02:43;-5.32;62.25
70867;HTU21D;58487;53.474;49.470;2023-01-26T06:05:09;-5.08;60.37
70867;HTU21D;58487;53.474;49.470;2023-01-26T06:07:36;-4.86;59.90
70867;HTU21D;58487;53.474;49.470;2023-01-26T06:10:03;-4.78;59.15
70867;HTU21D;58487;53.474;49.470;2023-01-26T06:12:29;-4.67;58.32
70867;HTU21D;58487;53.474;49.470;2023-01-26T06:15:00;-4.54;57.11
70867;HTU21D;58487;53.474;49.470;2023-01-26T06:17:26;-4.48;57.85
70867;HTU21D;58487;53.474;49.470;2023-01-26T06:19:52;-4.52;57.80
70867;HTU21D;58487;53.474;49.470;2023-01-26T06:22:18;-4.54;58.16
70867;HTU21D;58487;53.474;49.470;2023-01-26T06:24:45;-4.55;57.60
70867;HTU21D;58487;53.474;49.470;2023-01-26T06:27:13;-4.58;56.22
70867;HTU21D;58487;53.474;49.470;2023-01-26T06:29:40;-4.49;56.19
70867;HTU21D;58487;53.474;49.470;2023-01-26T06:32:10;-4.53;55.82
70867;HTU21D;58487;53.474;49.470;2023-01-26T06:34:36;-4.56;55.73
70867;HTU21D;58487;53.474;49.470;2023-01-26T06:37:02;-4.54;55.34
70867;HTU21D;58487;53.474;49.470;2023-01-26T06:39:28;-4.52;55.09
70867;HTU21D;58487;53.474;49.470;2023-01-26T06:41:54;-4.46;55.17
70867;HTU21D;58487;53.474;49.470;2023-01-26T06:44:20;-4.50;54.79
70867;HTU21D;58487;53.474;49.470;2023-01-26T06:46:46;-4.46;55.26
70867;HTU21D;58487;53.474;49.470;2023-01-26T06:49:12;-4.48;54.04
70867;HTU21D;58487;53.474;49.470;2023-01-26T06:54:11;-4.51;53.10
70867;HTU21D;58487;53.474;49.470;2023-01-26T06:56:38;-4.57;55.14
70867;HTU21D;58487;53.474;49.470;2023-01-26T06:59:04;-4.55;54.49
70867;HTU21D;58487;53.474;49.470;2023-01-26T07:01:35;-4.52;53.74
70867;HTU21D;58487;53.474;49.470;2023-01-26T07:04:02;-4.58;54.36
70867;HTU21D;58487;53.474;49.470;2023-01-26T07:06:28;-4.52;53.88
70867;HTU21D;58487;53.474;49.470;2023-01-26T07:08:54;-4.38;52.68
70867;HTU21D;58487;53.474;49.470;2023-01-26T07:11:20;-4.32;52.81
70867;HTU21D;58487;53.474;49.470;2023-01-26T07:13:47;-4.25;51.76
70867;HTU21D;58487;53.474;49.470;2023-01-26T07:16:15;-4.19;52.51
70867;HTU21D;58487;53.474;49.470;2023-01-26T07:18:41;-4.14;52.30
70867;HTU21D;58487;53.474;49.470;2023-01-26T07:21:13;-4.10;51.13
70867;HTU21D;58487;53.474;49.470;2023-01-26T07:23:40;-4.00;51.20
70867;HTU21D;58487;53.474;49.470;2023-01-26T07:26:06;-3.91;50.92
70867;HTU21D;58487;53.474;49.470;2023-01-26T07:28:32;-3.79;50.31
70867;HTU21D;58487;53.474;49.470;2023-01-26T07:30:59;-3.77;51.24
70867;HTU21D;58487;53.474;49.470;2023-01-26T07:33:27;-3.65;50.46
70867;HTU21D;58487;53.474;49.470;2023-01-26T07:35:54;-3.58;51.62
70867;HTU21D;58487;53.474;49.470;2023-01-26T07:38:21;-3.52;48.31
70867;HTU21D;58487;53.474;49.470;2023-01-26T07:40:47;-3.40;47.92
70867;HTU21D;58487;53.474;49.470;2023-01-26T07:43:14;-3.36;48.09
70867;HTU21D;58487;53.474;49.470;2023-01-26T07:45:48;-3.22;49.09
70867;HTU21D;58487;53.474;49.470;2023-01-26T07:48:19;-3.21;49.71
70867;HTU21D;58487;53.474;49.470;2023-01-26T07:50:46;-3.26;50.41
70867;HTU21D;58487;53.474;49.470;2023-01-26T07:53:12;-3.17;50.42
70867;HTU21D;58487;53.474;49.470;2023-01-26T07:55:40;-3.03;50.56
70867;HTU21D;58487;53.474;49.470;2023-01-26T07:58:11;-2.96;50.11
70867;HTU21D;58487;53.474;49.470;2023-01-26T08:00:37;-2.93;49.55
70867;HTU21D;58487;53.474;49.470;2023-01-26T08:03:04;-2.92;49.51
70867;HTU21D;58487;53.474;49.470;2023-01-26T08:05:31;-2.75;48.66
70867;HTU21D;58487;53.474;49.470;2023-01-26T08:07:58;-2.58;48.95
70867;HTU21D;58487;53.474;49.470;2023-01-26T08:10:25;-2.63;48.06
70867;HTU21D;58487;53.474;49.470;2023-01-26T08:12:51;-2.71;47.96
70867;HTU21D;58487;53.474;49.470;2023-01-26T08:15:17;-2.74;48.84
70867;HTU21D;58487;53.474;49.470;2023-01-26T08:17:43;-2.69;48.95
70867;HTU21D;58487;53.474;49.470;2023-01-26T08:20:09;-2.56;48.59
70867;HTU21D;58487;53.474;49.470;2023-01-26T08:22:36;-2.52;48.22
70867;HTU21D;58487;53.474;49.470;2023-01-26T08:25:02;-2.44;46.71
70867;HTU21D;58487;53.474;49.470;2023-01-26T08:27:28;-2.44;49.66
70867;HTU21D;58487;53.474;49.470;2023-01-26T08:29:54;-2.39;48.88
70867;HTU21D;58487;53.474;49.470;2023-01-26T08:32:20;-2.36;47.98
70867;HTU21D;58487;53.474;49.470;2023-01-26T08:34:46;-2.26;47.29
70867;HTU21D;58487;53.474;49.470;2023-01-26T08:37:12;-2.19;46.25
70867;HTU21D;58487;53.474;49.470;2023-01-26T08:39:38;-2.16;44.29
70867;HTU21D;58487;53.474;49.470;2023-01-26T08:42:04;-2.12;43.45
70867;HTU21D;58487;53.474;49.470;2023-01-26T08:44:30;-2.14;42.42
70867;HTU21D;58487;53.474;49.470;2023-01-26T08:46:56;-2.17;42.81
70867;HTU21D;58487;53.474;49.470;2023-01-26T08:49:22;-2.20;44.77
70867;HTU21D;58487;53.474;49.470;2023-01-26T08:51:48;-2.22;45.16
70867;HTU21D;58487;53.474;49.470;2023-01-26T08:54:14;-2.14;43.80
70867;HTU21D;58487;53.474;49.470;2023-01-26T08:56:40;-2.20;46.88
70867;HTU21D;58487;53.474;49.470;2023-01-26T08:59:06;-2.24;48.44
70867;HTU21D;58487;53.474;49.470;2023-01-26T09:01:32;-2.28;47.41
70867;HTU21D;58487;53.474;49.470;2023-01-26T09:03:58;-2.23;45.54
70867;HTU21D;58487;53.474;49.470;2023-01-26T09:06:24;-2.16;48.29
70867;HTU21D;58487;53.474;49.470;2023-01-26T09:08:52;-2.16;46.00
70867;HTU21D;58487;53.474;49.470;2023-01-26T09:11:18;-2.12;47.29
70867;HTU21D;58487;53.474;49.470;2023-01-26T09:13:49;-2.23;48.44
70867;HTU21D;58487;53.474;49.470;2023-01-26T09:16:21;-2.20;48.83
70867;HTU21D;58487;53.474;49.470;2023-01-26T09:18:49;-2.03;47.65
70867;HTU21D;58487;53.474;49.470;2023-01-26T09:21:15;-1.85;49.51
70867;HTU21D;58487;53.474;49.470;2023-01-26T09:23:41;-1.92;49.68
70867;HTU21D;58487;53.474;49.470;2023-01-26T09:26:07;-2.01;51.39
70867;HTU21D;58487;53.474;49.470;2023-01-26T09:28:33;-1.89;48.66
70867;HTU21D;58487;53.474;49.470;2023-01-26T09:31:07;-1.77;47.28
70867;HTU21D;58487;53.474;49.470;2023-01-26T09:33:35;-1.78;49.32
70867;HTU21D;58487;53.474;49.470;2023-01-26T09:36:06;-1.68;49.60
70867;HTU21D;58487;53.474;49.470;2023-01-26T09:38:33;-1.62;50.84
70867;HTU21D;58487;53.474;49.470;2023-01-26T09:49:20;-0.87;47.42
70867;HTU21D;58487;53.474;49.470;2023-01-26T09:51:53;-0.60;43.59
70867;HTU21D;58487;53.474;49.470;2023-01-26T09:54:47;-0.13;44.61
70867;HTU21D;58487;53.474;49.470;2023-01-26T09:57:16;0.09;42.84
70867;HTU21D;58487;53.474;49.470;2023-01-26T09:59:55;-0.05;42.73
70867;HTU21D;58487;53.474;49.470;2023-01-26T10:05:05;-0.16;43.13
70867;HTU21D;58487;53.474;49.470;2023-01-26T10:07:32;-0.12;45.21
70867;HTU21D;58487;53.474;49.470;2023-01-26T10:09:58;-0.08;46.97
70867;HTU21D;58487;53.474;49.470;2023-01-26T10:12:28;0.02;48.15
70867;HTU21D;58487;53.474;49.470;2023-01-26T10:15:16;-0.31;48.82
70867;HTU21D;58487;53.474;49.470;2023-01-26T10:17:44;-0.42;46.22
70867;HTU21D;58487;53.474;49.470;2023-01-26T10:20:33;-0.09;43.28
70867;HTU21D;58487;53.474;49.470;2023-01-26T10:25:39;0.32;43.18
70867;HTU21D;58487;53.474;49.470;2023-01-26T10:30:39;0.25;41.06
70867;HTU21D;58487;53.474;49.470;2023-01-26T10:33:13;0.27;42.42
70867;HTU21D;58487;53.474;49.470;2023-01-26T10:35:40;0.09;41.71
70867;HTU21D;58487;53.474;49.470;2023-01-26T10:43:54;0.27;41.03
70867;HTU21D;58487;53.474;49.470;2023-01-26T10:46:38;0.29;42.24
70867;HTU21D;58487;53.474;49.470;2023-01-26T10:51:35;0.14;41.42
70867;HTU21D;58487;53.474;49.470;2023-01-26T10:56:49;0.30;42.77
70867;HTU21D;58487;53.474;49.470;2023-01-26T10:59:26;0.46;41.16
70867;HTU21D;58487;53.474;49.470;2023-01-26T11:04:37;0.57;41.05
70867;HTU21D;58487;53.474;49.470;2023-01-26T11:09:49;0.96;40.71
70867;HTU21D;58487;53.474;49.470;2023-01-26T11:12:21;1.14;42.10
70867;HTU21D;58487;53.474;49.470;2023-01-26T11:15:00;1.13;40.46
70867;HTU21D;58487;53.474;49.470;2023-01-26T11:17:39;1.32;40.37
70867;HTU21D;58487;53.474;49.470;2023-01-26T11:26:06;1.34;39.91
70867;HTU21D;58487;53.474;49.470;2023-01-26T11:31:31;1.18;39.80
70867;HTU21D;58487;53.474;49.470;2023-01-26T11:34:20;0.84;40.71
70867;HTU21D;58487;53.474;49.470;2023-01-26T11:40:27;0.10;43.00
70867;HTU21D;58487;53.474;49.470;2023-01-26T11:48:52;-0.40;44.01
70867;HTU21D;58487;53.474;49.470;2023-01-26T12:00:01;-0.57;43.95
70867;HTU21D;58487;53.474;49.470;2023-01-26T12:02:36;-0.66;44.80
70867;HTU21D;58487;53.474;49.470;2023-01-26T12:05:21;-0.73;44.06
70867;HTU21D;58487;53.474;49.470;2023-01-26T12:11:02;-0.81;45.45
70867;HTU21D;58487;53.474;49.470;2023-01-26T12:16:57;-0.89;46.27
70867;HTU21D;58487;53.474;49.470;2023-01-26T12:22:10;-0.86;45.42
70867;HTU21D;58487;53.474;49.470;2023-01-26T12:24:56;-0.88;45.62
70867;HTU21D;58487;53.474;49.470;2023-01-26T12:27:29;-0.95;45.55
70867;HTU21D;58487;53.474;49.470;2023-01-26T12:30:11;-0.91;44.94
70867;HTU21D;58487;53.474;49.470;2023-01-26T12:32:41;-0.81;44.88
70867;HTU21D;58487;53.474;49.470;2023-01-26T12:35:10;-0.87;44.77
70867;HTU21D;58487;53.474;49.470;2023-01-26T12:37:46;-0.90;46.25
70867;HTU21D;58487;53.474;49.470;2023-01-26T12:40:27;-0.87;46.57
70867;HTU21D;58487;53.474;49.470;2023-01-26T12:43:21;-0.93;43.55
70867;HTU21D;58487;53.474;49.470;2023-01-26T12:45:54;-0.97;45.61
70867;HTU21D;58487;53.474;49.470;2023-01-26T12:48:28;-0.99;46.52
70867;HTU21D;58487;53.474;49.470;2023-01-26T12:51:03;-1.05;44.57
70867;HTU21D;58487;53.474;49.470;2023-01-26T12:53:42;-0.88;45.01
70867;HTU21D;58487;53.474;49.470;2023-01-26T12:56:22;-0.89;45.88
70867;HTU21D;58487;53.474;49.470;2023-01-26T12:58:51;-0.98;45.79
70867;HTU21D;58487;53.474;49.470;2023-01-26T13:01:21;-1.04;46.30
70867;HTU21D;58487;53.474;49.470;2023-01-26T13:04:01;-1.05;46.07
70867;HTU21D;58487;53.474;49.470;2023-01-26T13:06:28;-1.04;47.43
70867;HTU21D;58487;53.474;49.470;2023-01-26T13:11:48;-1.05;46.68
70867;HTU21D;58487;53.474;49.470;2023-01-26T13:30:03;-0.88;46.37
70867;HTU21D;58487;53.474;49.470;2023-01-26T13:35:17;-0.72;44.46
70867;HTU21D;58487;53.474;49.470;2023-01-26T13:38:08;-0.99;47.79
70867;HTU21D;58487;53.474;49.470;2023-01-26T13:40:46;-1.21;49.76
70867;HTU21D;58487;53.474;49.470;2023-01-26T13:43:32;-1.14;45.90
70867;HTU21D;58487;53.474;49.470;2023-01-26T13:48:49;-0.72;44.06
70867;HTU21D;58487;53.474;49.470;2023-01-26T13:53:48;-0.80;44.67
70867;HTU21D;58487;53.474;49.470;2023-01-26T13:58:49;-0.85;45.58
70867;HTU21D;58487;53.474;49.470;2023-01-26T14:01:19;-0.83;44.54
70867;HTU21D;58487;53.474;49.470;2023-01-26T14:03:45;-0.86;45.67
70867;HTU21D;58487;53.474;49.470;2023-01-26T14:06:20;-0.84;45.14
70867;HTU21D;58487;53.474;49.470;2023-01-26T14:08:53;-0.90;45.99
70867;HTU21D;58487;53.474;49.470;2023-01-26T14:11:22;-1.00;46.55
70867;HTU21D;58487;53.474;49.470;2023-01-26T14:13:51;-0.95;44.21
70867;HTU21D;58487;53.474;49.470;2023-01-26T14:16:41;-0.94;44.41
70867;HTU21D;58487;53.474;49.470;2023-01-26T14:19:20;-0.89;45.01
70867;HTU21D;58487;53.474;49.470;2023-01-26T14:21:59;-0.91;46.12
70867;HTU21D;58487;53.474;49.470;2023-01-26T14:24:32;-0.96;47.05
70867;HTU21D;58487;53.474;49.470;2023-01-26T14:26:59;-1.08;48.86
70867;HTU21D;58487;53.474;49.470;2023-01-26T14:29:28;-1.11;49.13
70867;HTU21D;58487;53.474;49.470;2023-01-26T14:31:58;-1.05;47.54
70867;HTU21D;58487;53.474;49.470;2023-01-26T14:34:27;-1.05;49.50
70867;HTU21D;58487;53.474;49.470;2023-01-26T14:37:11;-1.01;46.44
70867;HTU21D;58487;53.474;49.470;2023-01-26T14:39:38;-0.90;44.71
70867;HTU21D;58487;53.474;49.470;2023-01-26T14:42:05;-0.85;45.30
70867;HTU21D;58487;53.474;49.470;2023-01-26T14:44:31;-0.80;46.47
70867;HTU21D;58487;53.474;49.470;2023-01-26T14:49:41;-0.73;46.69
70867;HTU21D;58487;53.474;49.470;2023-01-26T14:54:49;-0.67;44.78
70867;HTU21D;58487;53.474;49.470;2023-01-26T14:57:19;-0.61;45.63
70867;HTU21D;58487;53.474;49.470;2023-01-26T14:59:49;-0.58;44.37
70867;HTU21D;58487;53.474;49.470;2023-01-26T15:02:19;-0.56;44.03
70867;HTU21D;58487;53.474;49.470;2023-01-26T15:07:35;-0.42;42.16
70867;HTU21D;58487;53.474;49.470;2023-01-26T15:10:23;-0.49;44.55
70867;HTU21D;58487;53.474;49.470;2023-01-26T15:13:22;-0.52;45.09
70867;HTU21D;58487;53.474;49.470;2023-01-26T15:16:10;-0.45;45.11
70867;HTU21D;58487;53.474;49.470;2023-01-26T15:18:36;-0.39;44.87
70867;HTU21D;58487;53.474;49.470;2023-01-26T15:21:14;-0.60;46.38
70867;HTU21D;58487;53.474;49.470;2023-01-26T15:23:48;-0.56;44.72
70867;HTU21D;58487;53.474;49.470;2023-01-26T15:26:30;-0.57;45.88
70867;HTU21D;58487;53.474;49.470;2023-01-26T15:29:05;-0.53;42.80
70867;HTU21D;58487;53.474;49.470;2023-01-26T15:31:41;-0.43;43.51
70867;HTU21D;58487;53.474;49.470;2023-01-26T15:34:34;-0.42;44.33
70867;HTU21D;58487;53.474;49.470;2023-01-26T15:37:48;-0.32;41.07
70867;HTU21D;58487;53.474;49.470;2023-01-26T15:39:48;-0.25;42.03
70867;HTU21D;58487;53.474;49.470;2023-01-26T15:42:20;-0.31;44.05
70867;HTU21D;58487;53.474;49.470;2023-01-26T15:44:46;-0.37;45.90
70867;HTU21D;58487;53.474;49.470;2023-01-26T15:47:12;-0.50;45.32
70867;HTU21D;58487;53.474;49.470;2023-01-26T15:49:39;-0.50;46.36
70867;HTU21D;58487;53.474;49.470;2023-01-26T15:52:11;-0.60;45.48
70867;HTU21D;58487;53.474;49.470;2023-01-26T15:54:39;-0.54;46.33
70867;HTU21D;58487;53.474;49.470;2023-01-26T15:57:05;-0.58;44.54
70867;HTU21D;58487;53.474;49.470;2023-01-26T15:59:30;-0.57;44.17
70867;HTU21D;58487;53.474;49.470;2023-01-26T16:01:57;-0.54;45.67
70867;HTU21D;58487;53.474;49.470;2023-01-26T16:04:23;-0.55;43.57
70867;HTU21D;58487;53.474;49.470;2023-01-26T16:06:50;-0.60;44.78
70867;HTU21D;58487;53.474;49.470;2023-01-26T16:09:16;-0.65;45.83
70867;HTU21D;58487;53.474;49.470;2023-01-26T16:11:51;-0.60;42.60
70867;HTU21D;58487;53.474;49.470;2023-01-26T16:14:18;-0.69;46.89
70867;HTU21D;58487;53.474;49.470;2023-01-26T16:16:44;-0.60;43.22
70867;HTU21D;58487;53.474;49.470;2023-01-26T16:19:10;-0.64;45.64
70867;HTU21D;58487;53.474;49.470;2023-01-26T16:21:41;-0.65;47.38
70867;HTU21D;58487;53.474;49.470;2023-01-26T16:24:09;-0.66;45.86
70867;HTU21D;58487;53.474;49.470;2023-01-26T16:26:35;-0.66;46.31
70867;HTU21D;58487;53.474;49.470;2023-01-26T16:29:01;-0.71;47.22
70867;HTU21D;58487;53.474;49.470;2023-01-26T16:31:32;-0.68;43.94
70867;HTU21D;58487;53.474;49.470;2023-01-26T16:33:59;-0.69;46.17
70867;HTU21D;58487;53.474;49.470;2023-01-26T16:36:25;-0.61;44.71
70867;HTU21D;58487;53.474;49.470;2023-01-26T16:38:51;-0.65;46.42
70867;HTU21D;58487;53.474;49.470;2023-01-26T16:41:24;-0.68;45.04
70867;HTU21D;58487;53.474;49.470;2023-01-26T16:43:53;-0.66;46.43
70867;HTU21D;58487;53.474;49.470;2023-01-26T16:46:20;-0.67;46.79
70867;HTU21D;58487;53.474;49.470;2023-01-26T16:48:46;-0.69;46.55
70867;HTU21D;58487;53.474;49.470;2023-01-26T16:53:44;-0.76;47.76
70867;HTU21D;58487;53.474;49.470;2023-01-26T16:56:11;-0.79;47.72
70867;HTU21D;58487;53.474;49.470;2023-01-26T16:58:38;-0.75;47.70
70867;HTU21D;58487;53.474;49.470;2023-01-26T17:01:04;-0.85;48.89
70867;HTU21D;58487;53.474;49.470;2023-01-26T17:03:30;-0.82;46.02
70867;HTU21D;58487;53.474;49.470;2023-01-26T17:05:57;-0.74;44.54
70867;HTU21D;58487;53.474;49.470;2023-01-26T17:08:23;-0.68;44.12
70867;HTU21D;58487;53.474;49.470;2023-01-26T17:10:49;-0.66;45.69
70867;HTU21D;58487;53.474;49.470;2023-01-26T17:13:15;-0.65;43.10
70867;HTU21D;58487;53.474;49.470;2023-01-26T17:15:42;-0.71;46.26
70867;HTU21D;58487;53.474;49.470;2023-01-26T17:18:11;-0.80;44.99